EDDC/DRS METAR and TAF weather

Enter ICAO airport designator
Station Type Date Time Source
EDDC METAR 2022/06/30 01:20 UTC NOAA

EDDC 300120Z AUTO VRB02KT 9999 SCT010 17/17 Q1013


Station Type Date Time Source
EDDC Decoded METAR 2022/06/30 01:20 UTC NOAA

Dresden-Klotzsche, Germany (EDDC) 51-08N 013-45E 232M
Jun 29, 2022 - 09:20 PM EDT / 2022.06.30 0120 UTC
Wind: Variable at 2 MPH (2 KT):0
Visibility: greater than 7 mile(s):0
Sky conditions: partly cloudy
Temperature: 62 F (17 C)
Dew Point: 62 F (17 C)
Relative Humidity: 100%
Pressure (altimeter): 29.91 in. Hg (1013 hPa)
ob: EDDC 300120Z AUTO VRB02KT 9999 SCT010 17/17 Q1013
cycle: 1

Station Type Date Time Source
EDDC TAF 2022/06/29 18:27 UTC NOAA

TAF EDDC 291700Z 2918/3018 06006KT 8000 BKN012 PROB40
TEMPO 2918/2922 3500 TSRA BKN005CB
BECMG 2921/2923 BKN007
BECMG 3000/3003 26004KT 3500 BR SCT003 BKN004 PROB40
TEMPO 3000/3006 0700 -RADZ BKN001
BECMG 3006/3008 9999 BKN013
BECMG 3009/3011 SCT040
BECMG 3014/3016 02005KT

Example: see airport list